PWSweather.com
Personal Weather Stations
Station Observations
IROGLAN40
AalgaardNO 4330

AalgaardNO 4330

Lat: 58.773, Lon: 5.846

Elevation: 326

Station Type: Davis Vanatge Pro2

Latest ConditionsUpdated 3:00:01 PM GMT+01:01 Monday, Jun 26, 2017
Currently Today's Max Today's Min Today's Average
Temperature 55.2°F12.9°C 56.1°F13.4°C 49.4°F9.7°C 51.5°F10.8°C
Dew Point 45.2°F7.3°C 49.8°F9.9°C 44.7°F7.1°C 47.5°F8.6°C
Winds 8.1 mph WNW13.0 kmh WNW 9.2 mph WNW14.8 kmh WNW - 5.9 mph 9.5 kmh
Wind Gusts 12.7 mph20.4 kmh 16.1 mph25.9 kmh - -
Humidity 69% 91% 69% 86%
Pressure 29.73 in1006.8 mb 29.73 in1006.8 mb 29.49 in998.6 mb -
Precipitation - 0.14 in3.6 mm - -
Hour Temp Dew Point Humidity Winds Wind Gusts Pressure Precip Precip Rate Daily Precip Total
03:00 PM 55.2°F12.9°C 45.2°F7.3°C 69% 8.1 mph WNW13.0 kmh WNW 12.7 mph20.4 kmh 29.73 in1006.8 mb - 0.00 in0.0 mm 0.14 in3.6 mm
02:50 PM 54.4°F12.4°C 45.2°F7.3°C 71% 6.9 mph WNW11.1 kmh WNW 10.4 mph16.7 kmh 29.73 in1006.8 mb - 0.00 in0.0 mm 0.14 in3.6 mm
02:40 PM 56.0°F13.3°C 47.4°F8.6°C 73% 8.1 mph WNW13.0 kmh WNW 13.8 mph22.2 kmh 29.73 in1006.8 mb - 0.00 in0.0 mm 0.14 in3.6 mm
02:30 PM 56.1°F13.4°C 47.5°F8.6°C 73% 8.1 mph W13.0 kmh W 11.5 mph18.5 kmh 29.73 in1006.8 mb - 0.00 in0.0 mm 0.14 in3.6 mm
02:20 PM 54.7°F12.6°C 46.6°F8.1°C 74% 6.9 mph W11.1 kmh W 10.4 mph16.7 kmh 29.73 in1006.8 mb - 0.00 in0.0 mm 0.14 in3.6 mm
02:10 PM 55.5°F13.1°C 47.3°F8.5°C 74% 8.1 mph NW13.0 kmh NW 10.4 mph16.7 kmh 29.73 in1006.8 mb - 0.00 in0.0 mm 0.14 in3.6 mm
02:00 PM 54.0°F12.2°C 45.5°F7.5°C 73% 9.2 mph W14.8 kmh W 11.5 mph18.5 kmh 29.73 in1006.8 mb - 0.00 in0.0 mm 0.14 in3.6 mm
01:50 PM 53.2°F11.8°C 44.7°F7.1°C 73% 9.2 mph WNW14.8 kmh WNW 16.1 mph25.9 kmh 29.72 in1006.4 mb - 0.00 in0.0 mm 0.14 in3.6 mm
01:40 PM 54.1°F12.3°C 46.0°F7.8°C 74% 9.2 mph W14.8 kmh W 16.1 mph25.9 kmh 29.72 in1006.4 mb - 0.00 in0.0 mm 0.14 in3.6 mm
01:30 PM 54.3°F12.4°C 47.3°F8.5°C 77% 8.1 mph WNW13.0 kmh WNW 12.7 mph20.4 kmh 29.72 in1006.4 mb - 0.00 in0.0 mm 0.14 in3.6 mm
01:20 PM 54.8°F12.7°C 48.1°F8.9°C 78% 8.1 mph WNW13.0 kmh WNW 12.7 mph20.4 kmh 29.72 in1006.4 mb - 0.00 in0.0 mm 0.14 in3.6 mm
01:10 PM 54.2°F12.3°C 48.5°F9.2°C 81% 8.1 mph W13.0 kmh W 10.4 mph16.7 kmh 29.71 in1006.1 mb - 0.00 in0.0 mm 0.14 in3.6 mm
01:00 PM 54.3°F12.4°C 48.9°F9.4°C 82% 8.1 mph W13.0 kmh W 11.5 mph18.5 kmh 29.70 in1005.8 mb - 0.00 in0.0 mm 0.14 in3.6 mm
12:50 PM 53.6°F12.0°C 49.2°F9.6°C 85% 6.9 mph WNW11.1 kmh WNW 11.5 mph18.5 kmh 29.71 in1006.1 mb - 0.00 in0.0 mm 0.14 in3.6 mm
12:40 PM 53.0°F11.7°C 49.2°F9.6°C 87% 9.2 mph WNW14.8 kmh WNW 11.5 mph18.5 kmh 29.70 in1005.8 mb - 0.00 in0.0 mm 0.14 in3.6 mm
12:30 PM 52.5°F11.4°C 49.3°F9.6°C 89% 5.8 mph WNW9.3 kmh WNW 10.4 mph16.7 kmh 29.71 in1006.1 mb - 0.00 in0.0 mm 0.14 in3.6 mm
12:20 PM 51.7°F10.9°C 48.9°F9.4°C 90% 4.6 mph WNW7.4 kmh WNW 6.9 mph11.1 kmh 29.70 in1005.8 mb - 0.01 in0.3 mm 0.14 in3.6 mm
12:10 PM 51.4°F10.8°C 48.5°F9.2°C 90% 6.9 mph W11.1 kmh W 10.4 mph16.7 kmh 29.70 in1005.8 mb - 0.00 in0.0 mm 0.13 in3.3 mm
12:00 PM 51.4°F10.8°C 48.8°F9.3°C 91% 5.8 mph WNW9.3 kmh WNW 11.5 mph18.5 kmh 29.70 in1005.8 mb - 0.00 in0.0 mm 0.13 in3.3 mm
11:50 AM 50.7°F10.4°C 48.2°F9.0°C 91% 5.8 mph WNW9.3 kmh WNW 6.9 mph11.1 kmh 29.70 in1005.8 mb - 0.00 in0.0 mm 0.13 in3.3 mm
11:40 AM 50.0°F10.0°C 47.5°F8.6°C 91% 3.5 mph WNW5.6 kmh WNW 5.8 mph9.3 kmh 29.70 in1005.8 mb - 0.00 in0.0 mm 0.13 in3.3 mm
11:30 AM 49.9°F9.9°C 47.0°F8.3°C 90% 4.6 mph WNW7.4 kmh WNW 6.9 mph11.1 kmh 29.70 in1005.8 mb - 0.02 in0.5 mm 0.13 in3.3 mm
11:20 AM 50.3°F10.2°C 47.5°F8.6°C 90% 6.9 mph W11.1 kmh W 9.2 mph14.8 kmh 29.69 in1005.4 mb - 0.02 in0.5 mm 0.12 in3.0 mm
11:10 AM 50.4°F10.2°C 47.6°F8.7°C 90% 4.6 mph W7.4 kmh W 6.9 mph11.1 kmh 29.69 in1005.4 mb - 0.01 in0.3 mm 0.10 in2.5 mm
11:00 AM 50.6°F10.3°C 47.4°F8.6°C 89% 5.8 mph W9.3 kmh W 10.4 mph16.7 kmh 29.68 in1005.1 mb - 0.03 in0.8 mm 0.09 in2.3 mm
10:50 AM 51.9°F11.1°C 47.8°F8.8°C 86% 6.9 mph WNW11.1 kmh WNW 9.2 mph14.8 kmh 29.68 in1005.1 mb - 0.06 in1.5 mm 0.07 in1.8 mm
10:40 AM 53.5°F11.9°C 49.4°F9.7°C 86% 4.6 mph NW7.4 kmh NW 10.4 mph16.7 kmh 29.67 in1004.7 mb - 0.00 in0.0 mm 0.01 in0.3 mm
10:30 AM 53.5°F11.9°C 49.8°F9.9°C 87% 6.9 mph WNW11.1 kmh WNW 11.5 mph18.5 kmh 29.67 in1004.7 mb - 0.00 in0.0 mm 0.01 in0.3 mm
10:20 AM 52.1°F11.2°C 48.7°F9.3°C 88% 6.9 mph NW11.1 kmh NW 12.7 mph20.4 kmh 29.67 in1004.7 mb - 0.00 in0.0 mm 0.01 in0.3 mm
10:10 AM 52.6°F11.4°C 48.2°F9.0°C 85% 5.8 mph WNW9.3 kmh WNW 6.9 mph11.1 kmh 29.67 in1004.7 mb - 0.01 in0.3 mm 0.01 in0.3 mm
10:00 AM 53.1°F11.7°C 48.4°F9.1°C 84% 6.9 mph NW11.1 kmh NW 10.4 mph16.7 kmh 29.66 in1004.4 mb - 0.00 in0.0 mm 0.00 in0.0 mm
09:50 AM 53.1°F11.7°C 48.7°F9.3°C 85% 6.9 mph WNW11.1 kmh WNW 11.5 mph18.5 kmh 29.66 in1004.4 mb - 0.00 in0.0 mm 0.00 in0.0 mm
09:40 AM 52.5°F11.4°C 48.1°F8.9°C 85% 5.8 mph NW9.3 kmh NW 11.5 mph18.5 kmh 29.66 in1004.4 mb - 0.00 in0.0 mm 0.00 in0.0 mm
09:30 AM 52.1°F11.2°C 47.8°F8.8°C 85% 6.9 mph WNW11.1 kmh WNW 11.5 mph18.5 kmh 29.65 in1004.1 mb - 0.00 in0.0 mm 0.00 in0.0 mm
09:20 AM 51.9°F11.1°C 47.5°F8.6°C 85% 8.1 mph WNW13.0 kmh WNW 10.4 mph16.7 kmh 29.65 in1004.1 mb - 0.00 in0.0 mm 0.00 in0.0 mm
09:10 AM 51.9°F11.1°C 47.5°F8.6°C 85% 5.8 mph WNW9.3 kmh WNW 10.4 mph16.7 kmh 29.65 in1004.1 mb - 0.00 in0.0 mm 0.00 in0.0 mm
09:00 AM 52.1°F11.2°C 47.7°F8.7°C 85% 6.9 mph WNW11.1 kmh WNW 8.1 mph13.0 kmh 29.65 in1004.1 mb - 0.00 in0.0 mm 0.00 in0.0 mm
08:50 AM 52.0°F11.1°C 47.7°F8.7°C 85% 5.8 mph WNW9.3 kmh WNW 9.2 mph14.8 kmh 29.64 in1003.7 mb - 0.00 in0.0 mm 0.00 in0.0 mm
08:40 AM 52.2°F11.2°C 47.8°F8.8°C 85% 5.8 mph WNW9.3 kmh WNW 8.1 mph13.0 kmh 29.64 in1003.7 mb - 0.00 in0.0 mm 0.00 in0.0 mm
08:30 AM 51.6°F10.9°C 47.2°F8.4°C 85% 8.1 mph WNW13.0 kmh WNW 11.5 mph18.5 kmh 29.64 in1003.7 mb - 0.00 in0.0 mm 0.00 in0.0 mm
08:20 AM 51.7°F10.9°C 47.6°F8.7°C 86% 5.8 mph WNW9.3 kmh WNW 10.4 mph16.7 kmh 29.64 in1003.7 mb - 0.00 in0.0 mm 0.00 in0.0 mm
08:10 AM 51.5°F10.8°C 47.5°F8.6°C 86% 5.8 mph WNW9.3 kmh WNW 9.2 mph14.8 kmh 29.64 in1003.7 mb - 0.00 in0.0 mm 0.00 in0.0 mm
08:00 AM 51.5°F10.8°C 47.5°F8.6°C 86% 5.8 mph WNW9.3 kmh WNW 10.4 mph16.7 kmh 29.63 in1003.4 mb - 0.00 in0.0 mm 0.00 in0.0 mm
07:50 AM 51.6°F10.9°C 47.5°F8.6°C 86% 4.6 mph WNW7.4 kmh WNW 9.2 mph14.8 kmh 29.63 in1003.4 mb - 0.00 in0.0 mm 0.00 in0.0 mm
07:40 AM 51.5°F10.8°C 47.5°F8.6°C 86% 5.8 mph WNW9.3 kmh WNW 9.2 mph14.8 kmh 29.63 in1003.4 mb - 0.00 in0.0 mm 0.00 in0.0 mm
07:30 AM 51.4°F10.8°C 47.7°F8.7°C 87% 6.9 mph WNW11.1 kmh WNW 10.4 mph16.7 kmh 29.62 in1003.0 mb - 0.00 in0.0 mm 0.00 in0.0 mm
07:20 AM 51.3°F10.7°C 47.6°F8.7°C 87% 5.8 mph WNW9.3 kmh WNW 9.2 mph14.8 kmh 29.62 in1003.0 mb - 0.00 in0.0 mm 0.00 in0.0 mm
07:10 AM 51.1°F10.6°C 47.4°F8.6°C 87% 4.6 mph WNW7.4 kmh WNW 9.2 mph14.8 kmh 29.61 in1002.7 mb - 0.00 in0.0 mm 0.00 in0.0 mm
07:00 AM 50.9°F10.5°C 47.2°F8.4°C 87% 4.6 mph W7.4 kmh W 6.9 mph11.1 kmh 29.61 in1002.7 mb - 0.00 in0.0 mm 0.00 in0.0 mm
06:50 AM 51.0°F10.6°C 47.6°F8.7°C 88% 3.5 mph NW5.6 kmh NW 5.8 mph9.3 kmh 29.61 in1002.7 mb - 0.00 in0.0 mm 0.00 in0.0 mm
06:40 AM 50.9°F10.5°C 47.4°F8.6°C 88% 5.8 mph WNW9.3 kmh WNW 9.2 mph14.8 kmh 29.61 in1002.7 mb - 0.00 in0.0 mm 0.00 in0.0 mm
06:30 AM 50.9°F10.5°C 47.5°F8.6°C 88% 6.9 mph NW11.1 kmh NW 10.4 mph16.7 kmh 29.61 in1002.7 mb - 0.00 in0.0 mm 0.00 in0.0 mm
06:20 AM 50.9°F10.5°C 47.4°F8.6°C 88% 5.8 mph WNW9.3 kmh WNW 8.1 mph13.0 kmh 29.60 in1002.4 mb - 0.00 in0.0 mm 0.00 in0.0 mm
06:10 AM 51.0°F10.6°C 47.9°F8.8°C 89% 5.8 mph WNW9.3 kmh WNW 8.1 mph13.0 kmh 29.60 in1002.4 mb - 0.00 in0.0 mm 0.00 in0.0 mm
06:00 AM 51.0°F10.6°C 47.9°F8.8°C 89% 4.6 mph WNW7.4 kmh WNW 11.5 mph18.5 kmh 29.60 in1002.4 mb - 0.00 in0.0 mm 0.00 in0.0 mm
05:50 AM 51.0°F10.6°C 47.9°F8.8°C 89% 5.8 mph WNW9.3 kmh WNW 8.1 mph13.0 kmh 29.59 in1002.0 mb - 0.00 in0.0 mm 0.00 in0.0 mm
05:40 AM 50.9°F10.5°C 47.8°F8.8°C 89% 6.9 mph NW11.1 kmh NW 11.5 mph18.5 kmh 29.59 in1002.0 mb - 0.00 in0.0 mm 0.00 in0.0 mm
05:30 AM 50.8°F10.4°C 48.0°F8.9°C 90% 5.8 mph WNW9.3 kmh WNW 8.1 mph13.0 kmh 29.59 in1002.0 mb - 0.00 in0.0 mm 0.00 in0.0 mm
05:20 AM 50.8°F10.4°C 48.0°F8.9°C 90% 4.6 mph W7.4 kmh W 6.9 mph11.1 kmh 29.59 in1002.0 mb - 0.00 in0.0 mm 0.00 in0.0 mm
05:10 AM 50.8°F10.4°C 48.0°F8.9°C 90% 3.5 mph WNW5.6 kmh WNW 8.1 mph13.0 kmh 29.59 in1002.0 mb - 0.00 in0.0 mm 0.00 in0.0 mm
05:00 AM 50.7°F10.4°C 47.6°F8.7°C 89% 4.6 mph W7.4 kmh W 5.8 mph9.3 kmh 29.58 in1001.7 mb - 0.00 in0.0 mm 0.00 in0.0 mm
04:50 AM 50.6°F10.3°C 47.5°F8.6°C 89% 3.5 mph W5.6 kmh W 6.9 mph11.1 kmh 29.58 in1001.7 mb - 0.00 in0.0 mm 0.00 in0.0 mm
04:40 AM 50.5°F10.3°C 47.4°F8.6°C 89% 4.6 mph WNW7.4 kmh WNW 10.4 mph16.7 kmh 29.58 in1001.7 mb - 0.00 in0.0 mm 0.00 in0.0 mm
04:30 AM 50.4°F10.2°C 47.3°F8.5°C 89% 5.8 mph W9.3 kmh W 9.2 mph14.8 kmh 29.57 in1001.4 mb - 0.00 in0.0 mm 0.00 in0.0 mm
04:20 AM 50.4°F10.2°C 47.3°F8.5°C 89% 5.8 mph WNW9.3 kmh WNW 10.4 mph16.7 kmh 29.57 in1001.4 mb - 0.00 in0.0 mm 0.00 in0.0 mm
04:10 AM 50.3°F10.2°C 47.2°F8.4°C 89% 5.8 mph W9.3 kmh W 11.5 mph18.5 kmh 29.57 in1001.4 mb - 0.00 in0.0 mm 0.00 in0.0 mm
04:00 AM 50.2°F10.1°C 47.4°F8.6°C 90% 4.6 mph WNW7.4 kmh WNW 6.9 mph11.1 kmh 29.57 in1001.4 mb - 0.00 in0.0 mm 0.00 in0.0 mm
03:50 AM 50.1°F10.1°C 47.3°F8.5°C 90% 5.8 mph WNW9.3 kmh WNW 8.1 mph13.0 kmh 29.57 in1001.4 mb - 0.00 in0.0 mm 0.00 in0.0 mm
03:40 AM 50.0°F10.0°C 46.9°F8.3°C 89% 5.8 mph W9.3 kmh W 6.9 mph11.1 kmh 29.57 in1001.4 mb - 0.00 in0.0 mm 0.00 in0.0 mm
03:30 AM 49.9°F9.9°C 46.8°F8.2°C 89% 4.6 mph WNW7.4 kmh WNW 8.1 mph13.0 kmh 29.57 in1001.4 mb - 0.00 in0.0 mm 0.00 in0.0 mm
03:20 AM 49.6°F9.8°C 46.8°F8.2°C 90% 4.6 mph W7.4 kmh W 6.9 mph11.1 kmh 29.57 in1001.4 mb - 0.00 in0.0 mm 0.00 in0.0 mm
03:10 AM 49.4°F9.7°C 46.3°F7.9°C 89% 3.5 mph WNW5.6 kmh WNW 9.2 mph14.8 kmh 29.56 in1001.0 mb - 0.00 in0.0 mm 0.00 in0.0 mm
03:00 AM 49.4°F9.7°C 46.3°F7.9°C 89% 5.8 mph WNW9.3 kmh WNW 6.9 mph11.1 kmh 29.56 in1001.0 mb - 0.00 in0.0 mm 0.00 in0.0 mm
02:50 AM 49.5°F9.7°C 46.4°F8.0°C 89% 4.6 mph WNW7.4 kmh WNW 5.8 mph9.3 kmh 29.56 in1001.0 mb - 0.00 in0.0 mm 0.00 in0.0 mm
02:40 AM 49.9°F9.9°C 46.8°F8.2°C 89% 4.6 mph W7.4 kmh W 6.9 mph11.1 kmh 29.55 in1000.7 mb - 0.00 in0.0 mm 0.00 in0.0 mm
02:30 AM 50.2°F10.1°C 47.1°F8.4°C 89% 4.6 mph WNW7.4 kmh WNW 8.1 mph13.0 kmh 29.55 in1000.7 mb - 0.00 in0.0 mm 0.00 in0.0 mm
02:20 AM 50.1°F10.1°C 47.0°F8.3°C 89% 3.5 mph NW5.6 kmh NW 5.8 mph9.3 kmh 29.55 in1000.7 mb - 0.00 in0.0 mm 0.00 in0.0 mm
02:10 AM 49.9°F9.9°C 46.8°F8.2°C 89% 3.5 mph W5.6 kmh W 4.6 mph7.4 kmh 29.55 in1000.7 mb - 0.00 in0.0 mm 0.00 in0.0 mm
02:00 AM 49.9°F9.9°C 46.8°F8.2°C 89% 3.5 mph W5.6 kmh W 5.8 mph9.3 kmh 29.54 in1000.3 mb - 0.00 in0.0 mm 0.00 in0.0 mm
01:50 AM 50.0°F10.0°C 46.9°F8.3°C 89% 4.6 mph W7.4 kmh W 6.9 mph11.1 kmh 29.54 in1000.3 mb - 0.00 in0.0 mm 0.00 in0.0 mm
01:40 AM 50.3°F10.2°C 47.2°F8.4°C 89% 2.3 mph W3.7 kmh W 10.4 mph16.7 kmh 29.53 in1000.0 mb - 0.00 in0.0 mm 0.00 in0.0 mm
01:30 AM 50.4°F10.2°C 47.3°F8.5°C 89% 4.6 mph W7.4 kmh W 8.1 mph13.0 kmh 29.53 in1000.0 mb - 0.00 in0.0 mm 0.00 in0.0 mm
01:20 AM 50.4°F10.2°C 47.6°F8.7°C 90% 5.8 mph WNW9.3 kmh WNW 11.5 mph18.5 kmh 29.52 in999.7 mb - 0.00 in0.0 mm 0.00 in0.0 mm
01:10 AM 50.4°F10.2°C 47.5°F8.6°C 90% 6.9 mph WNW11.1 kmh WNW 11.5 mph18.5 kmh 29.52 in999.7 mb - 0.00 in0.0 mm 0.00 in0.0 mm
01:00 AM 50.5°F10.3°C 47.7°F8.7°C 90% 6.9 mph NW11.1 kmh NW 6.9 mph11.1 kmh 29.52 in999.7 mb - 0.00 in0.0 mm 0.00 in0.0 mm
12:50 AM 50.7°F10.4°C 47.9°F8.8°C 90% 4.6 mph W7.4 kmh W 6.9 mph11.1 kmh 29.52 in999.7 mb - 0.00 in0.0 mm 0.00 in0.0 mm
12:40 AM 50.6°F10.3°C 47.8°F8.8°C 90% 4.6 mph W7.4 kmh W 6.9 mph11.1 kmh 29.51 in999.3 mb - 0.00 in0.0 mm 0.00 in0.0 mm
12:30 AM 50.4°F10.2°C 47.6°F8.7°C 90% 6.9 mph W11.1 kmh W 11.5 mph18.5 kmh 29.51 in999.3 mb - 0.00 in0.0 mm 0.00 in0.0 mm
12:20 AM 50.3°F10.2°C 47.8°F8.8°C 91% 6.9 mph WNW11.1 kmh WNW 10.4 mph16.7 kmh 29.50 in999.0 mb - 0.00 in0.0 mm 0.00 in0.0 mm
12:10 AM 50.5°F10.3°C 48.0°F8.9°C 91% 5.8 mph WNW9.3 kmh WNW 10.4 mph16.7 kmh 29.49 in998.6 mb - 0.00 in0.0 mm 0.00 in0.0 mm
12:00 AM 50.5°F10.3°C 48.0°F8.9°C 91% 6.9 mph W11.1 kmh W 11.5 mph18.5 kmh 29.49 in998.6 mb - 0.00 in0.0 mm 0.00 in0.0 mm